createdAt,value
2023-01-31T00:01:31.356Z,5.23
2023-01-31T00:04:03.039Z,5.21
2023-01-31T00:06:35.693Z,5.18
2023-01-31T00:09:07.173Z,5.19
2023-01-31T00:11:37.679Z,5.24
2023-01-31T00:14:11.697Z,5.29
2023-01-31T00:16:41.500Z,5.32
2023-01-31T00:19:11.279Z,5.31
2023-01-31T00:21:43.827Z,5.34
2023-01-31T00:24:15.223Z,5.34
2023-01-31T00:26:45.370Z,5.35
2023-01-31T00:29:17.825Z,5.36
2023-01-31T00:35:46.323Z,5.31
2023-01-31T00:38:16.168Z,5.34
2023-01-31T00:40:46.234Z,5.33
2023-01-31T00:43:15.953Z,5.34
2023-01-31T00:45:48.339Z,5.31
2023-01-31T00:48:18.131Z,5.28
2023-01-31T00:50:47.926Z,5.27
2023-01-31T00:53:18.417Z,5.25
2023-01-31T00:55:48.308Z,5.23
2023-01-31T00:58:18.122Z,5.20
2023-01-31T01:00:51.832Z,5.18
2023-01-31T01:03:21.748Z,5.16
2023-01-31T01:05:51.809Z,5.13
2023-01-31T01:08:21.716Z,5.11
2023-01-31T01:10:51.464Z,5.11
2023-01-31T01:13:21.254Z,5.09
2023-01-31T01:15:53.671Z,5.06
2023-01-31T01:18:23.421Z,5.03
2023-01-31T01:20:53.118Z,5.01
2023-01-31T01:23:22.901Z,4.97
2023-01-31T01:25:52.652Z,4.95
2023-01-31T01:28:22.381Z,4.93
2023-01-31T01:30:54.848Z,4.91
2023-01-31T01:33:24.594Z,4.89
2023-01-31T01:35:54.439Z,4.88
2023-01-31T01:38:24.470Z,4.87
2023-01-31T01:40:54.326Z,4.85
2023-01-31T01:43:24.056Z,4.87
2023-01-31T01:45:56.622Z,4.87
2023-01-31T01:48:26.981Z,4.86
2023-01-31T01:50:57.269Z,4.88
2023-01-31T01:53:30.982Z,4.89
2023-01-31T01:56:06.384Z,4.89
2023-01-31T01:58:41.961Z,4.90
2023-01-31T02:01:17.272Z,4.90
2023-01-31T02:03:48.590Z,4.92
2023-01-31T02:06:18.755Z,4.91
2023-01-31T02:08:48.884Z,4.90
2023-01-31T02:11:24.300Z,4.90
2023-01-31T02:13:59.081Z,4.89
2023-01-31T02:16:32.135Z,4.82
2023-01-31T02:19:02.355Z,4.81
2023-01-31T02:22:05.109Z,4.78
2023-01-31T02:25:02.229Z,4.73
2023-01-31T02:27:47.146Z,4.73
2023-01-31T02:30:54.989Z,4.69
2023-01-31T02:33:33.423Z,4.72
2023-01-31T02:36:12.075Z,4.73
2023-01-31T02:39:05.351Z,4.69
2023-01-31T02:41:44.264Z,4.70
2023-01-31T02:44:35.362Z,4.70
2023-01-31T02:47:13.550Z,4.70
2023-01-31T02:49:51.750Z,4.70
2023-01-31T02:52:29.920Z,4.70
2023-01-31T02:55:21.164Z,4.67
2023-01-31T02:57:53.726Z,4.64
2023-01-31T03:00:25.151Z,4.64
2023-01-31T03:02:55.116Z,4.63
2023-01-31T03:05:27.901Z,4.63
2023-01-31T03:08:00.307Z,4.61
2023-01-31T03:10:46.398Z,4.56
2023-01-31T03:13:34.180Z,4.55
2023-01-31T03:16:31.531Z,4.57
2023-01-31T03:19:13.657Z,4.60
2023-01-31T03:21:49.633Z,4.63
2023-01-31T03:24:21.587Z,4.67
2023-01-31T03:26:52.391Z,4.70
2023-01-31T03:29:23.000Z,4.71
2023-01-31T03:31:57.947Z,4.70
2023-01-31T03:34:28.645Z,4.72
2023-01-31T03:37:11.295Z,4.72
2023-01-31T03:39:46.063Z,4.72
2023-01-31T03:42:20.383Z,4.72
2023-01-31T03:44:58.340Z,4.72
2023-01-31T03:47:30.659Z,4.73
2023-01-31T03:50:05.466Z,4.74
2023-01-31T03:52:42.023Z,4.72
2023-01-31T03:55:18.656Z,4.73
2023-01-31T03:57:51.352Z,4.71
2023-01-31T04:00:24.491Z,4.72
2023-01-31T04:03:01.963Z,4.67
2023-01-31T04:05:33.474Z,4.65
2023-01-31T04:08:06.190Z,4.65
2023-01-31T04:10:35.961Z,4.60
2023-01-31T04:13:05.819Z,4.53
2023-01-31T04:15:36.837Z,4.57
2023-01-31T04:18:07.028Z,4.59
2023-01-31T04:20:36.968Z,4.56
2023-01-31T04:23:09.396Z,4.58
2023-01-31T04:25:39.239Z,4.57
2023-01-31T04:28:09.659Z,4.61
2023-01-31T04:30:39.615Z,4.62
2023-01-31T04:33:12.279Z,4.63
2023-01-31T04:35:43.257Z,4.63
2023-01-31T04:38:15.819Z,4.61
2023-01-31T04:40:45.684Z,4.62
2023-01-31T04:43:15.481Z,4.61
2023-01-31T04:45:45.286Z,4.61
2023-01-31T04:48:15.188Z,4.59
2023-01-31T04:50:44.998Z,4.63
2023-01-31T04:53:17.398Z,4.66
2023-01-31T04:55:47.207Z,4.67
2023-01-31T04:58:16.931Z,4.71
2023-01-31T05:00:48.002Z,4.77
2023-01-31T05:03:17.804Z,4.77
2023-01-31T05:05:47.582Z,4.77
2023-01-31T05:08:20.380Z,4.78
2023-01-31T05:10:50.101Z,4.81
2023-01-31T05:13:19.957Z,4.77
2023-01-31T05:15:51.239Z,4.82
2023-01-31T05:18:21.044Z,4.81
2023-01-31T05:20:51.496Z,4.82
2023-01-31T05:23:24.221Z,4.84
2023-01-31T05:25:53.951Z,4.85
2023-01-31T05:28:24.124Z,4.86
2023-01-31T05:30:54.168Z,4.84
2023-01-31T05:33:24.437Z,4.85
2023-01-31T05:35:54.335Z,4.85
2023-01-31T05:38:26.697Z,4.85
2023-01-31T05:40:56.565Z,4.86
2023-01-31T05:43:26.309Z,4.86
2023-01-31T05:45:56.166Z,4.86
2023-01-31T05:48:25.992Z,4.84
2023-01-31T05:50:56.977Z,4.85
2023-01-31T05:53:29.350Z,4.83
2023-01-31T05:55:59.211Z,4.84
2023-01-31T05:58:29.044Z,4.84
2023-01-31T06:00:59.836Z,4.87
2023-01-31T06:03:29.759Z,4.89
2023-01-31T06:06:00.550Z,4.89
2023-01-31T06:08:33.354Z,4.88
2023-01-31T06:11:04.983Z,4.88
2023-01-31T06:13:34.786Z,4.90
2023-01-31T06:16:04.625Z,4.89
2023-01-31T06:18:35.061Z,4.93
2023-01-31T06:21:04.875Z,4.91
2023-01-31T06:23:37.600Z,4.96
2023-01-31T06:26:07.708Z,4.97
2023-01-31T06:28:37.400Z,5.00
2023-01-31T06:31:10.687Z,5.01
2023-01-31T06:33:47.474Z,5.05
2023-01-31T06:36:19.453Z,5.06
2023-01-31T06:38:55.820Z,5.08
2023-01-31T06:41:25.766Z,5.11
2023-01-31T06:43:56.253Z,5.14
2023-01-31T06:46:26.549Z,5.13
2023-01-31T06:48:57.171Z,5.14
2023-01-31T06:51:27.079Z,5.12
2023-01-31T06:53:59.498Z,5.14
2023-01-31T06:56:29.285Z,5.13
2023-01-31T06:58:59.165Z,5.13
2023-01-31T07:01:29.117Z,5.14
2023-01-31T07:03:59.282Z,5.17
2023-01-31T07:06:29.268Z,5.17
2023-01-31T07:09:02.009Z,5.18
2023-01-31T07:11:31.718Z,5.21
2023-01-31T07:14:01.582Z,5.19
2023-01-31T07:16:34.552Z,5.20
2023-01-31T07:19:04.325Z,5.18
2023-01-31T07:21:36.213Z,5.21
2023-01-31T07:24:09.854Z,5.23
2023-01-31T07:26:39.826Z,5.27
2023-01-31T07:29:09.729Z,5.29
2023-01-31T07:31:39.582Z,5.31
2023-01-31T07:34:09.351Z,5.30
2023-01-31T07:36:39.077Z,5.33
2023-01-31T07:39:11.920Z,5.31
2023-01-31T07:41:41.716Z,5.31
2023-01-31T07:44:13.533Z,5.36
2023-01-31T07:46:44.194Z,5.36
2023-01-31T07:49:14.437Z,5.35
2023-01-31T07:51:44.227Z,5.37
2023-01-31T07:54:17.035Z,5.41
2023-01-31T07:56:47.668Z,5.42
2023-01-31T07:59:17.873Z,5.48
2023-01-31T08:02:00.095Z,5.50
2023-01-31T08:04:30.754Z,5.56
2023-01-31T08:07:03.085Z,5.58
2023-01-31T08:09:35.566Z,5.59
2023-01-31T08:12:05.507Z,5.59
2023-01-31T08:14:35.269Z,5.59
2023-01-31T08:17:06.370Z,5.60
2023-01-31T08:19:36.311Z,5.57
2023-01-31T08:22:07.383Z,5.59
2023-01-31T08:24:40.142Z,5.56
2023-01-31T08:27:09.995Z,5.58
2023-01-31T08:29:39.830Z,5.59
2023-01-31T08:32:09.873Z,5.56
2023-01-31T08:34:40.395Z,5.57
2023-01-31T08:37:10.230Z,5.60
2023-01-31T08:39:44.333Z,5.60
2023-01-31T08:42:14.102Z,5.63
2023-01-31T08:44:44.010Z,5.57
2023-01-31T08:47:13.809Z,5.61
2023-01-31T08:49:43.566Z,5.63
2023-01-31T08:52:13.357Z,5.64
2023-01-31T08:54:46.030Z,5.64
2023-01-31T08:57:15.759Z,5.68
2023-01-31T08:59:45.622Z,5.68
2023-01-31T09:02:15.484Z,5.67
2023-01-31T09:04:45.403Z,5.68
2023-01-31T09:07:15.358Z,5.68
2023-01-31T09:09:47.921Z,5.72
2023-01-31T09:12:17.860Z,5.75
2023-01-31T09:14:47.608Z,5.75
2023-01-31T09:17:17.420Z,5.79
2023-01-31T09:19:48.303Z,5.83
2023-01-31T09:22:18.096Z,5.90
2023-01-31T09:24:50.556Z,5.91
2023-01-31T09:27:20.467Z,5.98
2023-01-31T09:29:50.398Z,6.01
2023-01-31T09:32:21.423Z,6.05
2023-01-31T09:34:51.965Z,6.09
2023-01-31T09:37:21.702Z,6.10
2023-01-31T09:39:54.113Z,6.11
2023-01-31T09:42:29.750Z,6.16
2023-01-31T09:45:04.734Z,6.21
2023-01-31T09:47:39.633Z,6.19
2023-01-31T09:50:21.088Z,6.22
2023-01-31T09:52:51.418Z,6.24
2023-01-31T09:55:30.819Z,6.27
2023-01-31T09:58:10.235Z,6.25
2023-01-31T10:00:49.620Z,6.29
2023-01-31T10:03:48.926Z,6.28
2023-01-31T10:06:24.111Z,6.33
2023-01-31T10:08:58.295Z,6.32
2023-01-31T10:11:38.441Z,6.34
2023-01-31T10:14:29.363Z,6.33
2023-01-31T10:17:06.378Z,6.38
2023-01-31T10:19:42.898Z,6.40
2023-01-31T10:22:17.169Z,6.38
2023-01-31T10:24:52.326Z,6.43
2023-01-31T10:27:38.254Z,6.47
2023-01-31T10:30:18.519Z,6.54
2023-01-31T10:32:53.270Z,6.56
2023-01-31T10:35:28.021Z,6.60
2023-01-31T10:38:03.508Z,6.62
2023-01-31T10:40:37.002Z,6.62
2023-01-31T10:43:19.573Z,6.59
2023-01-31T10:45:49.389Z,6.61
2023-01-31T10:48:22.388Z,6.65
2023-01-31T10:51:01.196Z,6.71
2023-01-31T10:53:58.422Z,6.72
2023-01-31T10:56:34.043Z,6.70
2023-01-31T10:59:10.111Z,6.74
2023-01-31T11:01:40.074Z,6.81
2023-01-31T11:04:28.140Z,6.79
2023-01-31T11:06:58.102Z,6.87
2023-01-31T11:09:33.228Z,6.87
2023-01-31T11:12:05.719Z,6.96
2023-01-31T11:14:39.412Z,6.95
2023-01-31T11:17:12.379Z,6.95
2023-01-31T11:19:47.446Z,6.94
2023-01-31T11:22:26.191Z,6.95
2023-01-31T11:24:57.076Z,7.00
2023-01-31T11:27:31.193Z,7.00
2023-01-31T11:30:05.194Z,7.02
2023-01-31T11:32:40.127Z,7.02
2023-01-31T11:35:27.179Z,6.99
2023-01-31T11:37:59.001Z,6.96
2023-01-31T11:40:34.919Z,6.99
2023-01-31T11:43:07.073Z,7.03
2023-01-31T11:45:42.028Z,7.06
2023-01-31T11:48:19.273Z,7.06
2023-01-31T11:50:55.535Z,7.03
2023-01-31T11:53:27.984Z,7.06
2023-01-31T11:56:01.175Z,7.07
2023-01-31T11:58:37.161Z,7.10
2023-01-31T12:01:16.949Z,7.10
2023-01-31T12:04:01.844Z,7.09
2023-01-31T12:06:35.844Z,7.12
2023-01-31T12:09:08.208Z,7.13
2023-01-31T12:11:38.966Z,7.15
2023-01-31T12:14:16.790Z,7.17
2023-01-31T12:16:51.639Z,7.22
2023-01-31T12:19:34.809Z,7.18
2023-01-31T12:22:12.515Z,7.22
2023-01-31T12:24:54.186Z,7.21
2023-01-31T12:27:37.165Z,7.24
2023-01-31T12:30:24.897Z,7.29
2023-01-31T12:33:11.975Z,7.31
2023-01-31T12:36:09.611Z,7.33
2023-01-31T12:38:55.318Z,7.33
2023-01-31T12:41:35.256Z,7.36
2023-01-31T12:44:41.400Z,7.35
2023-01-31T12:47:26.813Z,7.40
2023-01-31T12:50:32.339Z,7.40
2023-01-31T12:53:28.328Z,7.37
2023-01-31T12:56:11.863Z,7.41
2023-01-31T12:59:02.895Z,7.39
2023-01-31T13:01:46.606Z,7.45
2023-01-31T13:04:37.672Z,7.44
2023-01-31T13:07:11.698Z,7.53
2023-01-31T13:09:44.637Z,7.43
2023-01-31T13:12:19.973Z,7.53
2023-01-31T13:14:54.868Z,7.52
2023-01-31T13:17:29.475Z,7.55
2023-01-31T13:20:05.054Z,7.54
2023-01-31T13:22:38.612Z,7.51
2023-01-31T13:25:19.993Z,7.47
2023-01-31T13:27:56.708Z,7.46
2023-01-31T13:30:39.691Z,7.48
2023-01-31T13:33:21.459Z,7.52
2023-01-31T13:36:00.396Z,7.52
2023-01-31T13:38:34.965Z,7.54
2023-01-31T13:41:10.248Z,7.49
2023-01-31T13:43:40.029Z,7.41
2023-01-31T13:46:13.788Z,7.45
2023-01-31T13:48:50.474Z,7.50
2023-01-31T13:51:24.366Z,7.54
2023-01-31T13:53:59.940Z,7.59
2023-01-31T13:56:35.939Z,7.58
2023-01-31T13:59:09.621Z,7.57
2023-01-31T14:01:48.960Z,7.57
2023-01-31T14:04:34.924Z,7.55
2023-01-31T14:07:21.003Z,7.58
2023-01-31T14:10:20.822Z,7.53
2023-01-31T14:13:41.011Z,7.46
2023-01-31T14:16:39.635Z,7.48
2023-01-31T14:19:57.149Z,7.48
2023-01-31T14:22:34.025Z,7.49
2023-01-31T14:25:07.293Z,7.53
2023-01-31T14:27:43.969Z,7.54
2023-01-31T14:30:28.766Z,7.53
2023-01-31T14:33:21.247Z,7.50
2023-01-31T14:36:21.858Z,7.54
2023-01-31T14:39:33.625Z,7.54
2023-01-31T14:42:49.392Z,7.54
2023-01-31T14:45:39.068Z,7.59
2023-01-31T14:48:24.747Z,7.58
2023-01-31T14:51:12.396Z,7.55
2023-01-31T14:54:00.520Z,7.55
2023-01-31T14:56:54.651Z,7.52
2023-01-31T14:59:35.192Z,7.53
2023-01-31T15:02:29.534Z,7.53
2023-01-31T15:05:01.108Z,7.55
2023-01-31T15:07:31.989Z,7.59
2023-01-31T15:10:02.560Z,7.64
2023-01-31T15:12:57.409Z,7.62
2023-01-31T15:15:35.095Z,7.65
2023-01-31T15:18:20.181Z,7.66
2023-01-31T15:20:54.841Z,7.69
2023-01-31T15:23:27.961Z,7.69
2023-01-31T15:26:01.180Z,7.69
2023-01-31T15:28:33.371Z,7.63
2023-01-31T15:31:07.785Z,7.66
2023-01-31T15:33:46.188Z,7.70
2023-01-31T15:36:22.318Z,7.73
2023-01-31T15:38:57.369Z,7.72
2023-01-31T15:41:32.067Z,7.75
2023-01-31T15:44:14.713Z,7.65
2023-01-31T15:46:47.007Z,7.66
2023-01-31T15:49:40.511Z,7.75
2023-01-31T15:52:16.915Z,7.77
2023-01-31T15:54:58.401Z,7.80
2023-01-31T15:57:31.692Z,7.86
2023-01-31T16:00:02.170Z,7.88
2023-01-31T16:02:36.221Z,7.88
2023-01-31T16:05:11.570Z,7.89
2023-01-31T16:07:41.449Z,7.82
2023-01-31T16:10:16.289Z,7.82
2023-01-31T16:12:50.804Z,7.78
2023-01-31T16:15:25.688Z,7.84
2023-01-31T16:17:57.758Z,7.82
2023-01-31T16:20:45.705Z,7.85
2023-01-31T16:23:28.601Z,7.87
2023-01-31T16:26:04.364Z,7.93
2023-01-31T16:28:40.724Z,7.95
2023-01-31T16:31:12.850Z,8.03
2023-01-31T16:33:50.144Z,8.06
2023-01-31T16:36:26.954Z,8.10
2023-01-31T16:39:01.146Z,8.14
2023-01-31T16:41:45.808Z,8.11
2023-01-31T16:44:22.823Z,8.13
2023-01-31T16:46:54.186Z,8.15
2023-01-31T16:49:26.813Z,8.12
2023-01-31T16:52:12.071Z,8.13
2023-01-31T16:54:47.899Z,8.11
2023-01-31T16:57:27.253Z,8.12
2023-01-31T16:59:57.467Z,8.12
2023-01-31T17:02:30.684Z,8.11
2023-01-31T17:05:03.202Z,8.09
2023-01-31T17:07:37.899Z,8.08
2023-01-31T17:10:11.125Z,8.10
2023-01-31T17:12:42.130Z,8.10
2023-01-31T17:15:17.087Z,8.07
2023-01-31T17:17:48.084Z,8.08
2023-01-31T17:20:20.844Z,8.11
2023-01-31T17:23:02.291Z,8.13
2023-01-31T17:25:36.612Z,8.13
2023-01-31T17:28:06.968Z,8.16
2023-01-31T17:30:37.989Z,8.21
2023-01-31T17:33:07.949Z,8.18
2023-01-31T17:35:40.851Z,8.21
2023-01-31T17:38:13.473Z,8.18
2023-01-31T17:40:45.079Z,8.20
2023-01-31T17:43:22.491Z,8.23
2023-01-31T17:45:52.257Z,8.26
2023-01-31T17:48:26.742Z,8.26
2023-01-31T17:50:57.228Z,8.29
2023-01-31T17:53:34.563Z,8.31
2023-01-31T17:56:10.596Z,8.34
2023-01-31T17:58:40.530Z,8.35
2023-01-31T18:01:13.976Z,8.34
2023-01-31T18:03:45.187Z,8.33
2023-01-31T18:06:15.099Z,8.34
2023-01-31T18:08:48.785Z,8.31
2023-01-31T18:11:19.928Z,8.32
2023-01-31T18:13:49.804Z,8.30
2023-01-31T18:16:21.925Z,8.29
2023-01-31T18:18:52.471Z,8.30
2023-01-31T18:21:25.419Z,8.18
2023-01-31T18:24:00.297Z,8.17
2023-01-31T18:26:30.176Z,8.19
2023-01-31T18:29:00.020Z,8.15
2023-01-31T18:31:30.306Z,8.08
2023-01-31T18:34:01.288Z,8.06
2023-01-31T18:36:31.140Z,8.07
2023-01-31T18:39:03.677Z,7.96
2023-01-31T18:41:33.639Z,8.06
2023-01-31T18:44:03.619Z,8.02
2023-01-31T18:46:33.905Z,8.09
2023-01-31T18:49:04.392Z,8.07
2023-01-31T18:51:34.347Z,8.06
2023-01-31T18:54:08.854Z,7.95
2023-01-31T18:56:38.723Z,7.99
2023-01-31T18:59:08.772Z,7.91
2023-01-31T19:01:41.607Z,7.91
2023-01-31T19:04:12.803Z,7.90
2023-01-31T19:06:44.600Z,7.89
2023-01-31T19:09:17.135Z,7.81
2023-01-31T19:11:46.965Z,7.86
2023-01-31T19:14:17.521Z,7.84
2023-01-31T19:16:49.396Z,7.84
2023-01-31T19:19:19.229Z,7.80
2023-01-31T19:21:49.026Z,7.81
2023-01-31T19:24:21.700Z,7.81
2023-01-31T19:26:51.828Z,7.81
2023-01-31T19:29:22.104Z,7.78
2023-01-31T19:31:51.825Z,7.75
2023-01-31T19:34:21.655Z,7.73
2023-01-31T19:36:52.032Z,7.71
2023-01-31T19:39:24.985Z,7.68
2023-01-31T19:41:54.755Z,7.65
2023-01-31T19:44:24.537Z,7.61
2023-01-31T19:46:55.352Z,7.60
2023-01-31T19:49:25.120Z,7.57
2023-01-31T19:51:55.099Z,7.53
2023-01-31T19:54:28.172Z,7.51
2023-01-31T19:56:57.936Z,7.49
2023-01-31T19:59:27.984Z,7.47
2023-01-31T20:01:57.940Z,7.45
2023-01-31T20:04:27.677Z,7.48
2023-01-31T20:06:57.452Z,7.49
2023-01-31T20:09:29.939Z,7.48
2023-01-31T20:12:00.011Z,7.49
2023-01-31T20:14:29.998Z,7.43
2023-01-31T20:16:59.861Z,7.40
2023-01-31T20:19:29.809Z,7.39
2023-01-31T20:21:59.681Z,7.36
2023-01-31T20:24:32.020Z,7.34
2023-01-31T20:27:01.887Z,7.34
2023-01-31T20:29:31.555Z,7.33
2023-01-31T20:32:01.374Z,7.30
2023-01-31T20:34:31.116Z,7.30
2023-01-31T20:37:00.899Z,7.29
2023-01-31T20:39:33.631Z,7.25
2023-01-31T20:42:03.729Z,7.25
2023-01-31T20:44:33.418Z,7.23
2023-01-31T20:47:03.151Z,7.21
2023-01-31T20:49:32.911Z,7.21
2023-01-31T20:52:03.091Z,7.17
2023-01-31T20:54:35.463Z,7.15
2023-01-31T20:57:05.159Z,7.13
2023-01-31T20:59:34.883Z,7.09
2023-01-31T21:02:04.666Z,7.06
2023-01-31T21:04:34.760Z,7.06
2023-01-31T21:07:04.885Z,7.02
2023-01-31T21:09:37.393Z,6.99
2023-01-31T21:12:07.978Z,6.96
2023-01-31T21:14:38.157Z,6.95
2023-01-31T21:17:07.948Z,6.93
2023-01-31T21:19:37.615Z,6.90
2023-01-31T21:22:07.708Z,6.89
2023-01-31T21:24:40.088Z,6.87
2023-01-31T21:27:09.840Z,6.86
2023-01-31T21:29:39.627Z,6.84
2023-01-31T21:32:09.539Z,6.83
2023-01-31T21:34:40.927Z,6.80
2023-01-31T21:37:10.820Z,6.77
2023-01-31T21:39:43.287Z,6.76
2023-01-31T21:42:16.503Z,6.73
2023-01-31T21:44:46.909Z,6.71
2023-01-31T21:47:17.383Z,6.69
2023-01-31T21:49:47.139Z,6.66
2023-01-31T21:52:17.136Z,6.63
2023-01-31T21:54:49.458Z,6.62
2023-01-31T21:57:19.285Z,6.60
2023-01-31T21:59:49.003Z,6.61
2023-01-31T22:02:18.867Z,6.65
2023-01-31T22:04:48.867Z,6.66
2023-01-31T22:07:18.592Z,6.67
2023-01-31T22:09:51.123Z,6.66
2023-01-31T22:12:20.985Z,6.66
2023-01-31T22:14:50.793Z,6.66
2023-01-31T22:17:20.475Z,6.67
2023-01-31T22:19:50.276Z,6.67
2023-01-31T22:22:20.092Z,6.66
2023-01-31T22:24:52.526Z,6.66
2023-01-31T22:27:22.304Z,6.64
2023-01-31T22:29:52.117Z,6.62
2023-01-31T22:32:21.985Z,6.61
2023-01-31T22:34:51.790Z,6.60
2023-01-31T22:37:21.440Z,6.58
2023-01-31T22:39:54.144Z,6.58
2023-01-31T22:42:24.165Z,6.59
2023-01-31T22:44:53.912Z,6.56
2023-01-31T22:47:23.705Z,6.55
2023-01-31T22:49:53.581Z,6.55
2023-01-31T22:52:23.361Z,6.52
2023-01-31T22:54:56.108Z,6.52
2023-01-31T22:57:27.670Z,6.51
2023-01-31T22:59:57.470Z,6.51
2023-01-31T23:02:27.196Z,6.51
2023-01-31T23:04:56.949Z,6.51
2023-01-31T23:07:26.735Z,6.49
2023-01-31T23:09:59.111Z,6.51
2023-01-31T23:12:28.837Z,6.52
2023-01-31T23:14:58.673Z,6.54
2023-01-31T23:17:40.665Z,6.54
2023-01-31T23:20:13.020Z,6.54
2023-01-31T23:22:43.646Z,6.52
2023-01-31T23:25:17.873Z,6.49
2023-01-31T23:27:47.693Z,6.48
2023-01-31T23:30:22.525Z,6.46
2023-01-31T23:32:52.554Z,6.44
2023-01-31T23:35:22.789Z,6.45
2023-01-31T23:37:52.728Z,6.43
2023-01-31T23:40:25.246Z,6.41
2023-01-31T23:42:54.970Z,6.40
2023-01-31T23:45:24.741Z,6.39
2023-01-31T23:47:54.464Z,6.42
2023-01-31T23:50:24.486Z,6.41
2023-01-31T23:52:55.056Z,6.39
2023-01-31T23:55:27.453Z,6.34
2023-01-31T23:57:57.237Z,6.34
